Time;durP1;ratioP1;P1;durP2;ratioP2;P2;SDS_P1;SDS_P2;PMS_P1;PMS_P2;Temp;Humidity;BMP_temperature;BMP_pressure;BME280_temperature;BME280_humidity;BME280_pressure;Samples;Min_cycle;Max_cycle;Signal;HPM_P1;HPM_P2
2021/04/24 00:00:00;;;;;;;11.60;5.10;;;7.40;59.70;;;;;;5066715;28;20032;-61
2021/04/24 00:02:26;;;;;;;8.98;5.00;;;7.60;59.60;;;;;;5066358;28;20032;-62
2021/04/24 00:04:52;;;;;;;11.35;5.03;;;7.60;59.60;;;;;;5066415;28;20029;-62
2021/04/24 00:07:19;;;;;;;8.52;4.90;;;7.30;59.40;;;;;;5065757;28;20037;-62
2021/04/24 00:09:45;;;;;;;10.88;5.20;;;7.30;59.90;;;;;;5065518;28;20351;-63
2021/04/24 00:12:11;;;;;;;10.15;4.72;;;7.30;60.30;;;;;;5067643;28;20041;-63
2021/04/24 00:14:36;;;;;;;8.93;5.03;;;7.50;59.60;;;;;;5065860;28;20032;-62
2021/04/24 00:17:03;;;;;;;12.18;5.20;;;7.40;58.50;;;;;;5065701;28;20092;-62
2021/04/24 00:19:29;;;;;;;8.27;5.18;;;7.10;58.80;;;;;;5065473;28;20041;-62
2021/04/24 00:21:54;;;;;;;10.30;4.38;;;6.90;59.10;;;;;;5065678;28;20056;-62
2021/04/24 00:24:20;;;;;;;9.27;4.80;;;7.00;60.10;;;;;;5065382;28;20037;-62
2021/04/24 00:26:45;;;;;;;11.18;4.93;;;7.00;59.70;;;;;;5067703;28;20228;-63
2021/04/24 00:29:11;;;;;;;8.60;4.85;;;6.80;59.80;;;;;;5065818;28;20056;-62
2021/04/24 00:31:36;;;;;;;8.00;4.90;;;6.70;61.10;;;;;;5053492;28;20123;-63
2021/04/24 00:34:04;;;;;;;10.73;5.10;;;6.80;61.00;;;;;;5052050;28;20072;-62
2021/04/24 00:36:30;;;;;;;12.45;5.28;;;7.00;60.60;;;;;;5065389;28;20262;-62
2021/04/24 00:38:56;;;;;;;13.65;5.05;;;7.00;60.30;;;;;;5067515;28;20304;-62
2021/04/24 00:41:21;;;;;;;12.52;5.07;;;7.00;60.40;;;;;;5065763;28;20037;-63
2021/04/24 00:43:47;;;;;;;15.52;5.45;;;7.20;60.20;;;;;;5065199;28;20206;-62
2021/04/24 00:46:14;;;;;;;8.23;4.47;;;7.20;59.80;;;;;;5065193;28;20079;-63
2021/04/24 00:48:39;;;;;;;8.00;4.30;;;7.20;60.20;;;;;;5064820;28;20078;-62
2021/04/24 00:51:05;;;;;;;9.75;4.80;;;7.40;59.40;;;;;;5066629;28;20259;-62
2021/04/24 00:53:31;;;;;;;9.02;4.85;;;7.40;59.00;;;;;;5064512;28;20056;-62
2021/04/24 00:55:56;;;;;;;8.93;4.97;;;7.30;59.20;;;;;;5065383;28;20037;-63
2021/04/24 00:58:22;;;;;;;9.23;4.80;;;7.30;58.80;;;;;;5065163;28;20104;-62
2021/04/24 01:00:48;;;;;;;13.68;4.60;;;6.90;59.50;;;;;;5065089;28;20059;-62
2021/04/24 01:03:14;;;;;;;10.15;4.82;;;6.80;60.20;;;;;;5065060;28;20211;-62
2021/04/24 01:05:41;;;;;;;10.60;4.78;;;6.80;60.80;;;;;;5066686;28;20021;-62
2021/04/24 01:08:08;;;;;;;10.32;4.72;;;6.70;59.50;;;;;;5065192;28;20083;-63
2021/04/24 01:10:35;;;;;;;9.98;5.25;;;6.40;59.60;;;;;;5064525;28;20041;-62
2021/04/24 01:13:00;;;;;;;9.00;4.55;;;6.50;60.20;;;;;;5065128;28;20036;-62
2021/04/24 01:15:26;;;;;;;8.65;4.70;;;6.70;59.90;;;;;;5064436;28;20339;-63
2021/04/24 01:17:51;;;;;;;9.82;4.47;;;6.80;59.60;;;;;;5066795;28;20217;-62
2021/04/24 01:20:17;;;;;;;9.90;4.28;;;6.40;60.60;;;;;;5064629;28;20112;-63
2021/04/24 01:22:47;;;;;;;13.27;5.05;;;6.60;59.90;;;;;;5052251;28;20034;-64
2021/04/24 01:25:16;;;;;;;8.38;4.35;;;6.60;59.60;;;;;;5053335;28;20037;-64
2021/04/24 01:27:41;;;;;;;9.30;5.00;;;6.40;59.80;;;;;;5064635;28;20305;-62
2021/04/24 01:30:08;;;;;;;9.13;4.90;;;6.40;59.90;;;;;;5048544;28;20127;-63
2021/04/24 01:32:34;;;;;;;7.55;4.40;;;6.50;60.40;;;;;;5065153;28;20106;-61
2021/04/24 01:34:59;;;;;;;12.00;5.18;;;6.60;60.00;;;;;;5064286;28;20096;-62
2021/04/24 01:37:25;;;;;;;11.38;4.95;;;6.40;59.90;;;;;;5064491;28;20037;-64
2021/04/24 01:39:51;;;;;;;9.93;4.63;;;6.30;60.20;;;;;;5064268;28;20037;-64
2021/04/24 01:42:16;;;;;;;7.82;4.75;;;6.30;61.40;;;;;;5064323;28;20071;-62
2021/04/24 01:44:42;;;;;;;9.35;4.60;;;6.40;61.10;;;;;;5065910;28;20297;-62
2021/04/24 01:47:07;;;;;;;10.88;4.70;;;6.40;60.70;;;;;;5064581;28;20033;-62
2021/04/24 01:49:33;;;;;;;9.07;4.47;;;6.40;60.70;;;;;;5063929;28;20204;-63
2021/04/24 01:51:58;;;;;;;9.73;4.35;;;6.30;61.40;;;;;;5063204;28;20033;-62
2021/04/24 01:54:24;;;;;;;9.88;4.57;;;6.40;60.90;;;;;;5063965;28;20028;-63
2021/04/24 01:56:54;;;;;;;7.93;4.60;;;6.30;60.80;;;;;;5065486;28;20120;-62
2021/04/24 01:59:21;;;;;;;9.45;4.38;;;6.20;60.90;;;;;;5064257;28;20037;-61
2021/04/24 02:01:49;;;;;;;8.90;4.78;;;6.20;61.30;;;;;;5064310;28;20044;-61
2021/04/24 02:04:16;;;;;;;11.68;4.88;;;6.20;61.00;;;;;;5063677;28;20040;-62
2021/04/24 02:06:41;;;;;;;12.68;4.93;;;6.20;61.50;;;;;;5062556;28;20064;-62
2021/04/24 02:09:10;;;;;;;8.95;4.70;;;6.30;61.20;;;;;;5065414;28;20084;-62
2021/04/24 02:11:36;;;;;;;10.57;4.75;;;6.40;60.80;;;;;;5044145;28;20048;-63
2021/04/24 02:14:04;;;;;;;10.57;4.53;;;6.30;60.20;;;;;;5058579;28;20037;-62
2021/04/24 02:16:30;;;;;;;8.30;4.57;;;6.10;60.30;;;;;;5063646;28;20358;-62
2021/04/24 02:18:55;;;;;;;10.43;4.95;;;6.10;61.50;;;;;;5063433;28;20108;-62
2021/04/24 02:21:21;;;;;;;7.43;4.40;;;6.00;61.40;;;;;;5062233;28;20049;-62
2021/04/24 02:23:46;;;;;;;10.65;5.10;;;5.70;62.00;;;;;;5065249;28;20029;-64
2021/04/24 02:26:12;;;;;;;11.60;4.63;;;5.40;61.90;;;;;;5062483;28;20036;-63
2021/04/24 02:28:37;;;;;;;9.07;4.30;;;5.40;62.90;;;;;;5063293;28;20029;-63
2021/04/24 02:31:03;;;;;;;9.95;4.72;;;5.30;64.20;;;;;;5063086;28;20384;-62
2021/04/24 02:33:29;;;;;;;9.70;4.43;;;5.50;63.90;;;;;;5063088;28;20227;-62
2021/04/24 02:35:56;;;;;;;7.60;4.80;;;5.70;63.30;;;;;;5064707;28;20028;-62
2021/04/24 02:38:30;;;;;;;18.52;5.30;;;5.50;62.70;;;;;;5045664;28;20041;-60
2021/04/24 02:40:58;;;;;;;8.70;4.80;;;5.50;62.90;;;;;;5057760;28;20205;-63
2021/04/24 02:43:23;;;;;;;9.07;4.65;;;5.80;62.10;;;;;;5063250;28;20267;-63
2021/04/24 02:45:49;;;;;;;6.60;4.50;;;5.80;62.10;;;;;;5063185;28;20029;-61
2021/04/24 02:48:15;;;;;;;7.80;4.70;;;5.70;62.20;;;;;;5063154;28;20037;-62
2021/04/24 02:50:41;;;;;;;8.35;4.20;;;5.30;63.50;;;;;;5064371;28;20040;-62
2021/04/24 02:53:06;;;;;;;9.35;4.47;;;5.20;64.30;;;;;;5063317;28;20104;-61
2021/04/24 02:55:32;;;;;;;10.82;4.97;;;5.20;64.90;;;;;;5062890;28;20045;-63
2021/04/24 02:57:58;;;;;;;9.02;4.47;;;5.40;64.80;;;;;;5062114;28;20328;-62
2021/04/24 03:00:24;;;;;;;8.40;4.43;;;5.50;63.30;;;;;;5062632;28;20025;-62
2021/04/24 03:03:03;;;;;;;12.63;4.35;;;5.40;63.10;;;;;;5064479;28;20021;-62
2021/04/24 03:05:29;;;;;;;9.45;4.13;;;5.60;63.00;;;;;;5043128;28;20036;-63
2021/04/24 03:07:55;;;;;;;10.77;4.85;;;5.50;62.80;;;;;;5056802;28;20032;-62
2021/04/24 03:10:21;;;;;;;7.00;4.20;;;5.40;62.50;;;;;;5062741;28;20064;-62
2021/04/24 03:12:46;;;;;;;11.32;4.53;;;5.40;63.10;;;;;;5062366;28;20224;-63
2021/04/24 03:15:12;;;;;;;9.07;4.38;;;5.50;62.40;;;;;;5062683;28;20025;-62
2021/04/24 03:17:38;;;;;;;10.32;4.43;;;5.60;62.00;;;;;;5064343;28;20025;-62
2021/04/24 03:20:06;;;;;;;9.90;4.05;;;5.60;61.60;;;;;;5061108;28;20225;-62
2021/04/24 03:22:32;;;;;;;10.15;4.47;;;5.70;61.80;;;;;;5041436;28;20041;-62
2021/04/24 03:24:57;;;;;;;11.52;4.63;;;5.60;61.20;;;;;;5048631;28;20240;-62
2021/04/24 03:27:23;;;;;;;8.55;4.25;;;5.30;62.80;;;;;;5062246;28;20025;-62
2021/04/24 03:29:48;;;;;;;12.27;4.47;;;5.30;63.00;;;;;;5064193;28;20083;-62
2021/04/24 03:32:14;;;;;;;8.85;4.50;;;5.40;62.40;;;;;;5062927;28;20067;-62
2021/04/24 03:34:39;;;;;;;8.13;4.38;;;5.40;62.20;;;;;;5062753;28;20039;-62
2021/04/24 03:37:05;;;;;;;9.52;4.63;;;5.40;62.30;;;;;;5062433;28;20295;-61
2021/04/24 03:39:31;;;;;;;9.60;4.68;;;5.50;62.00;;;;;;5062201;28;20048;-61
2021/04/24 03:41:56;;;;;;;11.48;4.60;;;5.40;62.50;;;;;;5063994;28;20033;-62
2021/04/24 03:44:22;;;;;;;9.38;4.90;;;5.30;62.30;;;;;;5043501;28;20228;-62
2021/04/24 03:46:48;;;;;;;12.30;4.63;;;5.30;61.90;;;;;;5055375;28;20273;-62
2021/04/24 03:49:13;;;;;;;8.55;4.10;;;5.40;61.90;;;;;;5062135;28;20033;-61
2021/04/24 03:51:39;;;;;;;9.88;4.78;;;5.40;61.90;;;;;;5058387;28;20034;-61
2021/04/24 03:54:06;;;;;;;11.57;4.32;;;5.40;61.40;;;;;;5043783;28;20031;-62
2021/04/24 03:56:31;;;;;;;8.75;4.43;;;5.30;61.90;;;;;;5061900;28;20193;-62
2021/04/24 03:58:57;;;;;;;7.78;3.95;;;5.10;62.10;;;;;;5062038;28;20092;-62
2021/04/24 04:01:22;;;;;;;7.93;4.22;;;4.90;62.50;;;;;;5061981;28;20051;-63
2021/04/24 04:03:48;;;;;;;8.45;4.00;;;4.90;62.50;;;;;;5062445;28;20261;-62
2021/04/24 04:06:13;;;;;;;10.20;4.80;;;4.50;63.50;;;;;;5061157;28;20123;-62
2021/04/24 04:08:39;;;;;;;10.80;4.55;;;4.50;63.90;;;;;;5063444;28;20079;-63
2021/04/24 04:11:04;;;;;;;13.15;4.30;;;4.40;63.80;;;;;;5061441;28;20051;-62
2021/04/24 04:13:30;;;;;;;10.38;4.60;;;4.20;63.80;;;;;;5062107;28;20049;-62
2021/04/24 04:15:55;;;;;;;10.65;3.97;;;4.40;64.40;;;;;;5061868;28;20041;-62
2021/04/24 04:18:21;;;;;;;11.07;4.47;;;4.50;64.60;;;;;;5061614;28;20037;-63
2021/04/24 04:20:51;;;;;;;9.23;4.10;;;4.60;63.70;;;;;;5063490;28;20266;-62
2021/04/24 04:23:17;;;;;;;8.13;3.60;;;4.60;63.80;;;;;;5061070;28;20038;-62
2021/04/24 04:25:43;;;;;;;6.95;3.75;;;4.90;63.80;;;;;;5061780;28;20209;-63
2021/04/24 04:28:09;;;;;;;8.93;3.90;;;5.00;63.00;;;;;;5060866;28;20324;-63
2021/04/24 04:30:36;;;;;;;9.68;3.75;;;4.90;62.80;;;;;;5061734;28;20029;-62
2021/04/24 04:33:01;;;;;;;9.82;3.63;;;4.50;63.50;;;;;;5063619;28;20037;-62
2021/04/24 04:35:27;;;;;;;8.13;3.97;;;4.70;64.40;;;;;;5043552;28;20037;-61
2021/04/24 04:37:53;;;;;;;6.93;3.95;;;4.80;64.10;;;;;;5055016;28;20037;-63
2021/04/24 04:40:19;;;;;;;9.32;3.70;;;4.90;63.50;;;;;;5061130;28;20328;-63
2021/04/24 04:42:45;;;;;;;6.70;3.97;;;4.90;63.50;;;;;;5061801;28;20041;-62
2021/04/24 04:45:11;;;;;;;7.38;3.83;;;5.00;63.30;;;;;;5064380;28;20239;-62
2021/04/24 04:47:36;;;;;;;9.68;4.10;;;4.90;63.10;;;;;;5064426;28;20037;-62
2021/04/24 04:50:07;;;;;;;7.75;4.18;;;4.90;63.90;;;;;;5065334;28;20095;-63
2021/04/24 04:52:33;;;;;;;7.22;3.67;;;5.00;62.80;;;;;;5065240;28;20386;-62
2021/04/24 04:54:58;;;;;;;13.23;4.82;;;4.80;64.40;;;;;;5065207;28;20041;-62
2021/04/24 04:57:24;;;;;;;10.07;4.15;;;4.90;64.20;;;;;;5065063;28;20224;-63
2021/04/24 04:59:49;;;;;;;8.90;4.00;;;5.00;64.10;;;;;;5066586;28;20021;-62
2021/04/24 05:02:15;;;;;;;10.32;4.10;;;4.90;64.40;;;;;;5065160;28;20060;-62
2021/04/24 05:04:40;;;;;;;10.23;4.72;;;5.30;63.40;;;;;;5065067;28;20055;-63
2021/04/24 05:07:06;;;;;;;11.95;4.50;;;5.20;62.80;;;;;;5064966;28;20092;-62
2021/04/24 05:09:31;;;;;;;9.23;3.90;;;5.10;62.40;;;;;;5064804;28;20351;-62
2021/04/24 05:11:57;;;;;;;8.40;3.78;;;5.20;64.00;;;;;;5066607;28;20052;-62
2021/04/24 05:14:22;;;;;;;11.57;4.28;;;5.60;62.90;;;;;;5065201;28;20104;-62
2021/04/24 05:16:48;;;;;;;9.50;4.50;;;5.60;62.30;;;;;;5065056;28;20219;-62
2021/04/24 05:19:13;;;;;;;10.55;4.50;;;5.60;62.80;;;;;;5065002;28;20036;-62
2021/04/24 05:21:39;;;;;;;11.00;4.40;;;5.70;62.10;;;;;;5064436;28;20052;-62
2021/04/24 05:24:05;;;;;;;7.95;4.13;;;5.80;62.70;;;;;;5066419;28;20033;-63
2021/04/24 05:26:31;;;;;;;6.68;4.13;;;5.70;62.10;;;;;;5064954;28;20048;-63
2021/04/24 05:28:56;;;;;;;8.27;4.00;;;5.80;62.20;;;;;;5064800;28;20045;-63
2021/04/24 05:31:23;;;;;;;8.00;3.85;;;5.90;61.80;;;;;;5064936;28;20217;-63
2021/04/24 05:33:48;;;;;;;9.00;4.47;;;6.00;61.60;;;;;;5064392;28;20033;-62
2021/04/24 05:36:16;;;;;;;8.32;3.85;;;6.20;61.50;;;;;;5064220;28;20202;-63
2021/04/24 05:38:41;;;;;;;9.15;4.38;;;6.20;61.70;;;;;;5065796;28;20135;-62
2021/04/24 05:41:09;;;;;;;9.65;4.30;;;6.30;61.40;;;;;;5064092;28;20033;-62
2021/04/24 05:43:35;;;;;;;14.13;4.50;;;6.40;61.50;;;;;;5062932;28;20394;-62
2021/04/24 05:46:00;;;;;;;9.63;4.30;;;6.50;61.10;;;;;;5063434;28;20037;-62
2021/04/24 05:48:26;;;;;;;7.22;3.83;;;6.50;61.50;;;;;;5063988;28;20115;-62
2021/04/24 05:50:51;;;;;;;8.43;4.13;;;6.50;61.10;;;;;;5066138;28;20040;-62
2021/04/24 05:53:17;;;;;;;11.48;4.18;;;6.50;61.00;;;;;;5063296;28;20232;-60
2021/04/24 05:55:42;;;;;;;9.43;5.38;;;6.60;61.70;;;;;;5063762;28;20072;-61
2021/04/24 05:58:08;;;;;;;11.93;4.35;;;6.70;62.40;;;;;;5064006;28;20071;-62
2021/04/24 06:00:34;;;;;;;13.90;5.00;;;6.80;61.00;;;;;;5064211;28;20032;-62
2021/04/24 06:02:59;;;;;;;12.70;4.68;;;6.90;62.10;;;;;;5064219;28;20096;-62
2021/04/24 06:05:25;;;;;;;11.82;4.88;;;7.00;61.00;;;;;;5064216;28;20036;-61
2021/04/24 06:07:50;;;;;;;16.70;4.75;;;7.20;60.70;;;;;;5063734;28;20047;-62
2021/04/24 06:10:16;;;;;;;11.95;4.70;;;7.30;60.50;;;;;;5062466;28;20092;-62
2021/04/24 06:12:43;;;;;;;12.15;4.63;;;7.40;59.90;;;;;;5063373;28;20136;-62
2021/04/24 06:15:09;;;;;;;9.25;3.63;;;7.60;58.90;;;;;;5065326;28;20084;-62
2021/04/24 06:17:35;;;;;;;10.65;3.78;;;7.70;58.00;;;;;;5063453;28;20037;-62
2021/04/24 06:20:01;;;;;;;6.30;3.20;;;7.80;56.30;;;;;;5063246;28;20079;-61
2021/04/24 06:22:26;;;;;;;12.60;3.92;;;7.90;56.50;;;;;;5063423;28;20041;-62
2021/04/24 06:24:52;;;;;;;12.10;3.78;;;8.00;55.70;;;;;;5062408;28;20037;-62
2021/04/24 06:27:17;;;;;;;11.25;3.67;;;8.20;56.20;;;;;;5063233;28;20092;-61
2021/04/24 06:29:43;;;;;;;8.95;3.60;;;8.30;55.40;;;;;;5065146;28;20094;-62
2021/04/24 06:32:09;;;;;;;10.05;3.90;;;8.40;56.00;;;;;;5063408;28;20033;-63
2021/04/24 06:34:34;;;;;;;9.27;3.97;;;8.60;54.90;;;;;;5062924;28;20056;-62
2021/04/24 06:37:00;;;;;;;9.57;4.45;;;8.80;54.70;;;;;;5062914;28;20061;-63
2021/04/24 06:39:26;;;;;;;13.48;3.70;;;8.90;54.80;;;;;;5062222;28;20262;-62
2021/04/24 06:41:51;;;;;;;12.05;3.83;;;9.10;54.50;;;;;;5064507;28;20040;-62
2021/04/24 06:44:17;;;;;;;10.10;3.85;;;9.30;52.90;;;;;;5063738;28;20279;-63
2021/04/24 06:46:43;;;;;;;13.40;4.35;;;9.40;52.50;;;;;;5062758;28;20044;-63
2021/04/24 06:49:09;;;;;;;12.30;4.20;;;9.50;51.60;;;;;;5062870;28;20044;-63
2021/04/24 06:51:34;;;;;;;8.25;4.15;;;9.60;50.40;;;;;;5062804;28;20033;-63
2021/04/24 06:54:00;;;;;;;11.55;4.22;;;9.80;50.40;;;;;;5064568;28;20213;-62
2021/04/24 06:56:25;;;;;;;10.30;4.10;;;10.00;49.90;;;;;;5062973;28;20053;-63
2021/04/24 06:58:51;;;;;;;9.27;3.97;;;10.20;48.80;;;;;;5063261;28;20029;-62
2021/04/24 07:01:17;;;;;;;10.75;4.63;;;10.80;46.90;;;;;;5062597;28;20075;-63
2021/04/24 07:03:42;;;;;;;13.20;4.25;;;11.50;45.50;;;;;;5062805;28;20049;-62
2021/04/24 07:06:08;;;;;;;9.95;4.03;;;11.80;44.90;;;;;;5064441;28;20075;-61
2021/04/24 07:08:33;;;;;;;8.23;4.38;;;11.80;44.10;;;;;;5062001;28;20345;-61
2021/04/24 07:10:59;;;;;;;10.63;4.25;;;11.90;44.40;;;;;;5063050;28;20044;-61
2021/04/24 07:13:25;;;;;;;10.82;4.70;;;12.40;44.00;;;;;;5062720;28;20198;-63
2021/04/24 07:15:50;;;;;;;17.67;5.80;;;13.10;43.20;;;;;;5057034;28;20042;-65
2021/04/24 07:18:16;;;;;;;11.48;7.53;;;18.80;33.40;;;;;;5042030;28;20025;-64
2021/04/24 07:20:42;;;;;;;13.55;7.75;;;26.90;21.60;;;;;;5063009;28;20108;-63
2021/04/24 07:23:07;;;;;;;12.73;7.45;;;32.80;15.60;;;;;;5061137;28;20097;-63
2021/04/24 07:25:33;;;;;;;12.90;8.07;;;38.10;11.40;;;;;;5062240;28;20053;-63
2021/04/24 07:27:59;;;;;;;15.23;7.25;;;41.90;8.80;;;;;;5062565;28;20059;-63
2021/04/24 07:30:24;;;;;;;12.77;7.45;;;45.30;7.20;;;;;;5062195;28;20032;-63
2021/04/24 07:32:50;;;;;;;9.07;6.43;;;47.60;6.20;;;;;;5063848;28;20033;-63
2021/04/24 07:35:16;;;;;;;12.55;7.20;;;48.30;5.70;;;;;;5062207;28;20083;-63
2021/04/24 07:37:42;;;;;;;12.30;8.20;;;50.90;5.20;;;;;;5049880;28;20061;-63
2021/04/24 07:40:08;;;;;;;11.13;5.65;;;53.10;4.60;;;;;;5040808;28;20040;-62
2021/04/24 07:42:34;;;;;;;11.82;4.75;;;54.70;4.10;;;;;;5045323;28;20041;-64
2021/04/24 07:44:59;;;;;;;9.82;4.72;;;49.30;5.10;;;;;;5064352;28;20092;-63
2021/04/24 07:47:25;;;;;;;12.88;5.32;;;40.10;7.90;;;;;;5062079;28;20037;-64
2021/04/24 07:49:52;;;;;;;8.55;4.80;;;33.20;12.00;;;;;;5061888;28;20271;-62
2021/04/24 07:52:19;;;;;;;10.55;4.88;;;26.90;16.20;;;;;;5062018;28;20047;-63
2021/04/24 07:54:45;;;;;;;10.25;5.20;;;23.00;21.00;;;;;;5062356;28;20041;-63
2021/04/24 07:57:11;;;;;;;9.63;5.75;;;21.10;23.20;;;;;;5063812;28;20083;-64
2021/04/24 07:59:36;;;;;;;10.32;5.88;;;19.80;25.90;;;;;;5061697;28;20037;-62
2021/04/24 08:02:02;;;;;;;12.80;5.60;;;18.60;27.30;;;;;;5062109;28;20044;-62
2021/04/24 08:04:27;;;;;;;10.43;5.47;;;18.20;28.70;;;;;;5061915;28;20066;-64
2021/04/24 08:06:53;;;;;;;15.35;5.97;;;17.80;29.60;;;;;;5061855;28;20222;-63
2021/04/24 08:09:19;;;;;;;16.45;6.15;;;17.50;29.60;;;;;;5061618;28;20056;-64
2021/04/24 08:11:44;;;;;;;14.18;6.32;;;17.30;29.90;;;;;;5062260;28;20033;-65
2021/04/24 08:14:10;;;;;;;12.35;5.90;;;17.20;28.60;;;;;;5061667;28;20067;-64
2021/04/24 08:16:35;;;;;;;11.80;4.88;;;17.10;30.10;;;;;;5061039;28;20236;-62
2021/04/24 08:19:01;;;;;;;10.48;5.57;;;17.10;30.50;;;;;;5061755;28;20074;-62
2021/04/24 08:21:27;;;;;;;13.48;5.88;;;17.10;29.00;;;;;;5064889;28;20040;-62
2021/04/24 08:23:58;;;;;;;9.05;5.60;;;17.10;29.30;;;;;;5067413;28;20062;-62
2021/04/24 08:26:24;;;;;;;;;;;17.00;31.20;;;;;;5066450;28;20035;-61
2021/04/24 08:28:50;;;;;;;11.32;5.70;;;16.90;28.70;;;;;;5065450;28;20188;-63
2021/04/24 08:31:16;;;;;;;15.07;5.65;;;16.80;29.30;;;;;;5065720;28;20041;-62
2021/04/24 08:33:42;;;;;;;15.55;5.90;;;16.80;30.10;;;;;;5065394;28;20277;-62
2021/04/24 08:36:08;;;;;;;10.98;5.75;;;16.90;31.40;;;;;;5067034;28;20033;-63
2021/04/24 08:38:33;;;;;;;11.90;5.20;;;16.80;30.00;;;;;;5065727;28;20045;-63
2021/04/24 08:40:59;;;;;;;14.43;5.75;;;16.90;29.80;;;;;;5065681;28;20037;-60
2021/04/24 08:43:25;;;;;;;14.27;5.40;;;17.10;31.30;;;;;;5064014;28;20340;-62
2021/04/24 08:45:50;;;;;;;13.20;5.18;;;17.20;30.40;;;;;;5044112;28;20033;-62
2021/04/24 08:48:19;;;;;;;11.43;6.00;;;17.30;28.80;;;;;;5045794;28;20243;-62
2021/04/24 08:50:45;;;;;;;13.43;6.22;;;17.30;30.20;;;;;;5066475;28;20052;-61
2021/04/24 08:53:10;;;;;;;10.32;5.95;;;17.30;30.50;;;;;;5065134;28;20036;-64
2021/04/24 08:55:38;;;;;;;11.88;5.55;;;17.50;29.90;;;;;;5064952;28;20032;-61
2021/04/24 08:58:04;;;;;;;12.15;6.20;;;17.60;30.30;;;;;;5065040;28;20056;-61
2021/04/24 09:00:36;;;;;;;14.80;6.07;;;17.40;28.70;;;;;;5065061;28;20084;-62
2021/04/24 09:03:02;;;;;;;13.57;6.70;;;17.50;28.70;;;;;;5066735;28;20088;-61
2021/04/24 09:05:28;;;;;;;10.18;5.68;;;17.50;27.90;;;;;;5065113;28;20044;-63
2021/04/24 09:08:01;;;;;;;13.07;5.53;;;17.50;28.80;;;;;;5065039;28;20044;-61
2021/04/24 09:10:27;;;;;;;9.05;4.82;;;17.60;28.30;;;;;;5065158;28;20037;-61
2021/04/24 09:12:52;;;;;;;13.55;5.47;;;17.80;28.00;;;;;;5063599;28;20056;-62
2021/04/24 09:15:22;;;;;;;9.45;4.82;;;17.90;28.20;;;;;;5064575;28;20051;-62
2021/04/24 09:17:56;;;;;;;10.70;5.70;;;18.10;26.30;;;;;;5066225;28;20071;-62
2021/04/24 09:20:24;;;;;;;10.57;5.70;;;18.30;28.50;;;;;;5064363;28;20443;-62
2021/04/24 09:22:59;;;;;;;17.83;6.30;;;18.40;27.20;;;;;;5064854;28;20052;-61
2021/04/24 09:25:32;;;;;;;14.85;6.25;;;18.40;29.40;;;;;;5064453;28;20037;-61
2021/04/24 09:27:58;;;;;;;13.27;6.13;;;18.30;28.10;;;;;;5064392;28;20087;-62
2021/04/24 09:30:31;;;;;;;13.93;5.63;;;18.30;29.20;;;;;;5063641;28;20232;-61
2021/04/24 09:33:08;;;;;;;11.27;5.80;;;18.30;29.10;;;;;;5064792;28;20036;-62
2021/04/24 09:35:45;;;;;;;14.93;6.25;;;18.30;26.70;;;;;;5064595;28;20104;-63
2021/04/24 09:38:16;;;;;;;9.10;5.88;;;18.30;25.80;;;;;;5063809;28;20061;-65
2021/04/24 09:40:42;;;;;;;;;;;18.10;27.20;;;;;;5064491;28;20048;-64
2021/04/24 09:43:08;;;;;;;11.18;5.05;;;18.30;25.50;;;;;;5063917;28;19905;-63
2021/04/24 09:45:42;;;;;;;13.75;5.50;;;18.30;26.70;;;;;;5063870;28;20037;-63
2021/04/24 09:48:26;;;;;;;13.52;5.97;;;18.30;26.90;;;;;;5065619;28;20368;-65
2021/04/24 09:50:52;;;;;;;10.48;5.70;;;18.40;26.30;;;;;;5064915;28;20332;-64
2021/04/24 09:53:24;;;;;;;10.70;5.70;;;18.60;26.40;;;;;;5046171;28;20034;-62
2021/04/24 09:55:51;;;;;;;8.98;5.57;;;18.60;25.80;;;;;;5056450;28;20384;-63
2021/04/24 09:58:43;;;;;;;12.25;5.80;;;18.80;27.60;;;;;;5064204;28;20033;-63
2021/04/24 10:01:28;;;;;;;13.05;5.50;;;18.80;25.30;;;;;;5063102;28;20037;-63
2021/04/24 10:03:54;;;;;;;13.25;5.93;;;18.70;26.70;;;;;;5063780;28;20033;-65
2021/04/24 10:06:38;;;;;;;14.73;6.00;;;18.80;26.10;;;;;;5063151;28;20319;-64
2021/04/24 10:09:08;;;;;;;13.55;5.63;;;18.80;25.80;;;;;;5065320;28;20028;-66
2021/04/24 10:11:34;;;;;;;11.13;5.50;;;18.70;26.40;;;;;;5064159;28;20045;-64
2021/04/24 10:13:59;;;;;;;12.77;6.28;;;18.80;27.40;;;;;;5062948;28;20041;-64
2021/04/24 10:16:35;;;;;;;8.85;5.72;;;18.90;26.60;;;;;;5063439;28;20403;-63
2021/04/24 10:19:06;;;;;;;11.45;5.75;;;18.70;25.50;;;;;;5063334;28;20255;-64
2021/04/24 10:21:32;;;;;;;;;;;18.60;27.00;;;;;;5063638;28;20063;-63
2021/04/24 10:24:01;;;;;;;13.95;6.03;;;18.80;26.00;;;;;;5064844;28;19893;-69
2021/04/24 10:26:27;;;;;;;12.32;5.97;;;18.90;26.10;;;;;;5063660;28;20312;-64
2021/04/24 10:28:56;;;;;;;18.33;5.55;;;19.10;27.60;;;;;;5063323;28;20033;-64
2021/04/24 10:31:22;;;;;;;11.40;6.30;;;19.20;25.50;;;;;;5062037;28;20041;-62
2021/04/24 10:33:48;;;;;;;12.07;6.00;;;19.20;26.00;;;;;;5063471;28;20071;-63
2021/04/24 10:36:14;;;;;;;12.73;6.47;;;19.20;24.10;;;;;;5062266;28;20033;-68
2021/04/24 10:38:45;;;;;;;18.15;6.28;;;19.10;25.10;;;;;;5043547;28;20364;-65
2021/04/24 10:41:10;;;;;;;12.63;5.97;;;19.20;26.30;;;;;;5059532;28;20041;-62
2021/04/24 10:43:36;;;;;;;14.40;5.95;;;19.30;26.10;;;;;;5061246;28;20037;-64
2021/04/24 10:46:24;;;;;;;12.48;5.90;;;19.30;26.90;;;;;;5061890;28;20094;-64
2021/04/24 10:48:49;;;;;;;12.60;5.97;;;19.60;29.80;;;;;;5062778;28;20092;-66
2021/04/24 10:51:15;;;;;;;11.25;6.50;;;19.70;25.60;;;;;;5062999;28;20078;-66
2021/04/24 10:53:40;;;;;;;18.70;6.80;;;19.50;26.60;;;;;;5064543;28;20096;-65
2021/04/24 10:56:06;;;;;;;16.50;6.30;;;19.50;25.20;;;;;;5063107;28;20037;-65
2021/04/24 10:58:35;;;;;;;11.88;6.15;;;19.50;25.50;;;;;;5062967;28;20045;-65
2021/04/24 11:01:01;;;;;;;11.88;6.78;;;19.40;28.30;;;;;;5061704;28;20075;-66
2021/04/24 11:03:48;;;;;;;16.17;7.00;;;19.50;23.50;;;;;;5062916;28;20088;-64
2021/04/24 11:06:18;;;;;;;13.50;6.43;;;19.50;26.60;;;;;;5028797;28;20017;-64
2021/04/24 11:08:44;;;;;;;11.40;6.75;;;19.40;29.20;;;;;;5063481;28;20048;-65
2021/04/24 11:11:11;;;;;;;10.90;6.22;;;19.70;30.30;;;;;;5062795;28;20086;-65
2021/04/24 11:13:38;;;;;;;11.85;6.28;;;19.80;32.50;;;;;;5062497;28;20041;-65
2021/04/24 11:16:07;;;;;;;12.52;6.15;;;19.90;30.10;;;;;;5062747;28;20041;-65
2021/04/24 11:18:33;;;;;;;14.63;6.82;;;20.10;25.70;;;;;;5045368;28;20028;-65
2021/04/24 11:21:06;;;;;;;14.02;7.03;;;20.10;25.30;;;;;;5063969;28;20044;-65
2021/04/24 11:23:32;;;;;;;14.57;6.45;;;20.20;25.40;;;;;;5045052;28;20032;-65
2021/04/24 11:26:25;;;;;;;13.70;6.70;;;20.30;27.50;;;;;;5062700;28;20048;-65
2021/04/24 11:28:56;;;;;;;12.75;6.70;;;20.20;24.40;;;;;;5054160;28;20259;-65
2021/04/24 11:32:00;;;;;;;15.60;7.28;;;20.20;26.80;;;;;;5062321;28;20240;-65
2021/04/24 11:34:34;;;;;;;11.88;6.95;;;20.30;25.50;;;;;;5052301;28;20046;-65
2021/04/24 11:37:15;;;;;;;13.40;7.07;;;20.30;25.20;;;;;;5048886;28;20100;-65
2021/04/24 11:40:07;;;;;;;12.02;6.80;;;20.30;26.40;;;;;;5062401;28;20052;-64
2021/04/24 11:42:33;;;;;;;11.82;6.95;;;20.40;27.20;;;;;;5061419;28;20068;-65
2021/04/24 11:44:59;;;;;;;13.82;7.50;;;20.40;25.90;;;;;;5064064;28;20033;-65
2021/04/24 11:47:43;;;;;;;11.10;6.38;;;20.50;24.80;;;;;;5061301;28;20195;-65
2021/04/24 11:50:09;;;;;;;12.52;7.20;;;20.40;24.90;;;;;;5062021;28;20335;-65
2021/04/24 11:52:34;;;;;;;11.40;7.15;;;20.40;23.20;;;;;;5062115;28;20213;-65
2021/04/24 11:55:00;;;;;;;17.63;6.97;;;20.30;24.40;;;;;;5064015;28;20098;-65
2021/04/24 11:57:27;;;;;;;14.65;6.68;;;20.40;26.60;;;;;;5064093;28;20029;-65
2021/04/24 11:59:52;;;;;;;11.80;7.50;;;20.60;25.40;;;;;;5047856;28;20040;-65
2021/04/24 12:02:27;;;;;;;11.07;6.53;;;20.70;25.00;;;;;;5046448;28;20045;-65
2021/04/24 12:05:00;;;;;;;14.68;7.40;;;20.80;24.30;;;;;;5059979;28;20059;-65
2021/04/24 12:07:25;;;;;;;17.27;7.22;;;20.80;23.40;;;;;;5064797;28;20086;-65
2021/04/24 12:09:56;;;;;;;16.45;7.60;;;20.80;25.10;;;;;;5065778;28;20037;-65
2021/04/24 12:12:45;;;;;;;13.97;6.67;;;20.90;25.40;;;;;;5065897;28;20043;-65
2021/04/24 12:15:25;;;;;;;16.63;6.60;;;21.00;23.00;;;;;;5064032;28;20320;-65
2021/04/24 12:17:57;;;;;;;15.02;6.90;;;21.00;25.90;;;;;;5066491;28;20047;-65
2021/04/24 12:20:33;;;;;;;11.63;6.05;;;21.10;23.90;;;;;;5065775;28;20044;-64
2021/04/24 12:23:01;;;;;;;14.95;6.47;;;21.10;24.40;;;;;;5065469;28;20344;-64
2021/04/24 12:25:28;;;;;;;14.07;7.15;;;20.90;23.80;;;;;;5065250;28;20036;-65
2021/04/24 12:27:54;;;;;;;15.93;6.63;;;20.90;24.60;;;;;;5065350;28;20331;-65
2021/04/24 12:30:30;;;;;;;14.05;6.47;;;20.80;23.60;;;;;;5064561;28;20029;-65
2021/04/24 12:33:10;;;;;;;32.50;7.47;;;20.80;24.50;;;;;;5047407;28;20022;-65
2021/04/24 12:35:49;;;;;;;15.30;6.78;;;21.10;25.60;;;;;;5065678;28;20052;-65
2021/04/24 12:38:20;;;;;;;159.63;18.00;;;21.10;25.70;;;;;;5047719;28;20221;-66
2021/04/24 12:40:48;;;;;;;39.83;9.23;;;21.20;25.30;;;;;;5058186;28;20246;-66
2021/04/24 12:43:15;;;;;;;482.73;36.22;;;21.30;22.90;;;;;;5065119;28;20044;-66
2021/04/24 12:45:42;;;;;;;235.30;22.08;;;21.30;25.50;;;;;;5065032;28;20033;-66
2021/04/24 12:48:15;;;;;;;15.15;6.63;;;21.50;25.60;;;;;;5067215;28;20335;-65